Startpagina
METAR-TAF:

METAR-TAF

Vliegvelden :

Luchthaven Ben-Gurion

Tel Aviv / Ben Gurion, Israël

breedte: 32-00N, lengte: 034-54E, hoogte: 40 m

Actueel weer

Dit bericht is 12 minuten geleden gemaakt, om 11:50 UTC
Wind 14 kt uit het oostzuidoosten
Temperatuur 23°C
Vochtigheid 38%
Druk 1018 hPa
Zicht 10 km of meer
geen wolken onder 1500 m en geen cumulonimbus

METAR: LLBG 151150Z 12014KT CAVOK 23/08 Q1018 NOSIG

Tijdstip: 14:02 (12:02 UTC)

Verwachting

Dit bericht is 58 minuten geleden gemaakt, om 11:04 UTC
Verwachting geldig van 15 om 12 UTC tot 16 om 12 UTC
Wind 10 kt uit het oostzuidoosten
Zicht 10 km of meer
geen wolken onder 1500 m en geen cumulonimbus
Tijdelijke
van 15 om 12 UTC tot 15 om 14 UTC
Wind 16 kt uit het oostzuidoosten
Wijzigt naar
van 16 om 07 UTC tot 16 om 09 UTC
Wind 8 kt uit het westzuidwesten

TAF: LLBG 151104Z 1512/1612 11010KT CAVOK TEMPO 1512/1514 11016KT BECMG 1607/1609 24008KT TX24/1512Z TN15/1604Z

Waarnemingen en weersverwachtingen van meer dan 4000 vliegvelden (METAR en TAF).

De beschikbare stations zijn de gele en rode punten op de kaart.

Ga met uw muis naar het station om de naam te zien.

Klik dan om waarnemingen en weersverwachtingen te zien.

kaart wijzigen: klik op de groene knoppen met een zwart kruis om in te zoomen, op de groene knop met een streepje om uit te zoomen of op de groene pijlen voor aangrenzende kaarten.


METAR-TAF: